Time;durP1;ratioP1;P1;durP2;ratioP2;P2;SDS_P1;SDS_P2;PMS_P1;PMS_P2;Temp;Humidity;BMP_temperature;BMP_pressure;BME280_temperature;BME280_humidity;BME280_pressure;Samples;Min_cycle;Max_cycle;Signal;HPM_P1;HPM_P2
2022/07/26 00:01:17;;;;;;;0.00;0.00;;;19.30;99.90;;;;;;4937773;28;20494;-75
2022/07/26 00:03:48;;;;;;;0.00;0.00;;;19.30;99.90;;;;;;4940091;28;20828;-76
2022/07/26 00:06:17;;;;;;;0.00;0.00;;;19.30;99.90;;;;;;4935067;28;20611;-72
2022/07/26 00:08:46;;;;;;;0.00;0.00;;;19.30;99.90;;;;;;4918942;28;20491;-73
2022/07/26 00:11:14;;;;;;;0.00;0.00;;;19.30;99.90;;;;;;4917964;29;20808;-70
2022/07/26 00:13:42;;;;;;;0.00;0.00;;;19.20;99.90;;;;;;4917578;29;20477;-70
2022/07/26 00:16:10;;;;;;;0.00;0.00;;;19.20;99.90;;;;;;4917241;29;20471;-70
2022/07/26 00:18:38;;;;;;;0.00;0.00;;;19.20;99.90;;;;;;4917551;29;20545;-70
2022/07/26 00:21:08;;;;;;;0.00;0.00;;;19.30;99.90;;;;;;4917450;29;20560;-70
2022/07/26 00:23:38;;;;;;;0.00;0.00;;;19.30;99.90;;;;;;4918017;29;20450;-70
2022/07/26 00:26:06;;;;;;;0.00;0.00;;;19.30;99.90;;;;;;4918425;29;20449;-70
2022/07/26 00:28:34;;;;;;;0.00;0.00;;;19.30;99.90;;;;;;4918909;29;20473;-70
2022/07/26 00:31:03;;;;;;;0.00;0.00;;;19.20;99.90;;;;;;4918737;29;20484;-70
2022/07/26 00:33:31;;;;;;;0.00;0.00;;;19.10;99.90;;;;;;4919352;29;20486;-69
2022/07/26 00:35:59;;;;;;;0.00;0.00;;;19.10;99.90;;;;;;4918512;29;20523;-70
2022/07/26 00:38:28;;;;;;;0.00;0.00;;;19.00;99.90;;;;;;4918609;29;20549;-69
2022/07/26 00:40:57;;;;;;;0.00;0.00;;;18.90;99.90;;;;;;4918183;29;20564;-69
2022/07/26 00:43:25;;;;;;;0.00;0.00;;;18.90;99.90;;;;;;4918382;29;20447;-68
2022/07/26 00:45:52;;;;;;;0.00;0.00;;;18.90;99.90;;;;;;4918832;29;20461;-69
2022/07/26 00:48:20;;;;;;;0.00;0.00;;;18.90;99.90;;;;;;4918588;28;20488;-69
2022/07/26 00:50:48;;;;;;;0.00;0.00;;;18.90;99.90;;;;;;4918257;29;20446;-70
2022/07/26 00:53:19;;;;;;;0.00;0.00;;;18.90;99.90;;;;;;4918687;29;20446;-70
2022/07/26 00:55:49;;;;;;;0.00;0.00;;;18.90;99.90;;;;;;4918325;29;20458;-71
2022/07/26 00:58:18;;;;;;;0.00;0.00;;;19.00;99.90;;;;;;4918436;29;20472;-71
2022/07/26 01:00:46;;;;;;;0.00;0.00;;;19.00;99.90;;;;;;4918142;28;20490;-70
2022/07/26 01:03:14;;;;;;;0.00;0.00;;;19.00;99.90;;;;;;4918625;29;20468;-71
2022/07/26 01:05:42;;;;;;;0.00;0.00;;;19.00;99.90;;;;;;4917992;29;20594;-70
2022/07/26 01:08:10;;;;;;;0.00;0.00;;;19.00;99.90;;;;;;4919255;28;20567;-70
2022/07/26 01:10:38;;;;;;;0.00;0.00;;;19.10;99.90;;;;;;4921206;29;21114;-76
2022/07/26 01:13:08;;;;;;;0.00;0.00;;;19.00;99.90;;;;;;4921192;29;20537;-71
2022/07/26 01:15:36;;;;;;;0.00;0.00;;;18.90;99.90;;;;;;4921510;29;21226;-72
2022/07/26 01:18:04;;;;;;;0.00;0.00;;;18.80;99.90;;;;;;4921623;29;20462;-71
2022/07/26 01:20:32;;;;;;;0.00;0.00;;;18.80;99.90;;;;;;4920950;29;21160;-72
2022/07/26 01:23:01;;;;;;;0.00;0.00;;;18.80;99.90;;;;;;4921045;29;20487;-72
2022/07/26 01:25:30;;;;;;;0.00;0.00;;;18.70;99.90;;;;;;4921366;29;20447;-72
2022/07/26 01:27:58;;;;;;;0.00;0.00;;;18.70;99.90;;;;;;4921306;29;20483;-73
2022/07/26 01:30:26;;;;;;;0.00;0.00;;;18.70;99.90;;;;;;4921017;29;20467;-71
2022/07/26 01:32:54;;;;;;;0.00;0.00;;;18.60;99.90;;;;;;4921019;29;20989;-70
2022/07/26 01:35:22;;;;;;;0.00;0.00;;;18.60;99.90;;;;;;4921159;29;20452;-71
2022/07/26 01:37:49;;;;;;;0.00;0.00;;;18.40;99.90;;;;;;4920873;29;20485;-71
2022/07/26 01:40:18;;;;;;;0.00;0.00;;;18.30;99.90;;;;;;4921007;28;20466;-71
2022/07/26 01:42:46;;;;;;;0.00;0.00;;;18.20;99.90;;;;;;4920785;28;20497;-72
2022/07/26 01:45:14;;;;;;;0.00;0.00;;;18.20;99.90;;;;;;4921333;29;20459;-73
2022/07/26 01:47:43;;;;;;;0.00;0.00;;;18.10;99.90;;;;;;4920894;29;20473;-72
2022/07/26 01:50:11;;;;;;;0.00;0.00;;;18.10;99.90;;;;;;4920842;29;20961;-72
2022/07/26 01:52:39;;;;;;;0.00;0.00;;;18.10;99.90;;;;;;4920874;29;21159;-72
2022/07/26 01:55:07;;;;;;;0.00;0.00;;;18.10;99.90;;;;;;4920973;29;20444;-74
2022/07/26 01:57:36;;;;;;;0.00;0.00;;;18.00;99.90;;;;;;4920788;29;20533;-70
2022/07/26 02:00:06;;;;;;;0.00;0.00;;;18.00;99.90;;;;;;4920389;29;20443;-69
2022/07/26 02:02:34;;;;;;;0.00;0.00;;;18.00;99.90;;;;;;4919841;28;20776;-69
2022/07/26 02:05:02;;;;;;;0.00;0.00;;;18.00;99.90;;;;;;4920261;29;20474;-68
2022/07/26 02:07:32;;;;;;;0.00;0.00;;;18.00;99.90;;;;;;4920272;28;20642;-68
2022/07/26 02:10:00;;;;;;;0.00;0.00;;;18.00;99.90;;;;;;4920165;29;20530;-70
2022/07/26 02:12:28;;;;;;;0.00;0.00;;;18.10;99.90;;;;;;4920850;29;20446;-70
2022/07/26 02:14:57;;;;;;;0.00;0.00;;;18.10;99.90;;;;;;4919923;29;20530;-69
2022/07/26 02:23:47;;;;;;;0.20;0.00;;;18.00;99.90;;;;;;4940859;29;21064;-73
2022/07/26 02:26:15;;;;;;;0.00;0.00;;;17.90;99.90;;;;;;4939609;29;20479;-73
2022/07/26 02:28:43;;;;;;;0.00;0.00;;;17.90;99.90;;;;;;4939248;29;20464;-72
2022/07/26 02:31:12;;;;;;;0.00;0.00;;;17.90;99.90;;;;;;4938919;28;20974;-73
2022/07/26 02:33:42;;;;;;;0.00;0.00;;;17.90;99.90;;;;;;4939398;29;20985;-73
2022/07/26 02:36:10;;;;;;;0.00;0.00;;;17.80;99.90;;;;;;4939810;28;20454;-73
2022/07/26 02:38:37;;;;;;;0.00;0.00;;;17.90;99.90;;;;;;4939052;28;20461;-73
2022/07/26 02:41:06;;;;;;;0.00;0.00;;;17.90;99.90;;;;;;4939477;28;20458;-73
2022/07/26 02:43:33;;;;;;;0.00;0.00;;;17.80;99.90;;;;;;4939677;28;21112;-73
2022/07/26 02:46:01;;;;;;;0.00;0.00;;;17.80;99.90;;;;;;4940428;28;20446;-74
2022/07/26 02:48:31;;;;;;;0.00;0.00;;;17.70;99.90;;;;;;4941026;28;20472;-73
2022/07/26 02:50:59;;;;;;;0.00;0.00;;;17.80;99.90;;;;;;4941027;28;20443;-73
2022/07/26 02:53:27;;;;;;;0.00;0.00;;;17.80;99.90;;;;;;4940465;29;20526;-72
2022/07/26 02:55:55;;;;;;;0.00;0.00;;;17.80;99.90;;;;;;4939306;29;20981;-73
2022/07/26 02:58:23;;;;;;;0.00;0.00;;;17.70;99.90;;;;;;4939013;28;20553;-73
2022/07/26 03:00:51;;;;;;;0.00;0.00;;;17.70;99.90;;;;;;4938927;28;20450;-72
2022/07/26 03:03:19;;;;;;;0.00;0.00;;;17.70;99.90;;;;;;4939249;29;20476;-72
2022/07/26 03:05:48;;;;;;;0.00;0.00;;;17.70;99.90;;;;;;4939098;28;20460;-72
2022/07/26 03:08:16;;;;;;;0.00;0.00;;;17.70;99.90;;;;;;4939816;28;20467;-73
2022/07/26 03:10:44;;;;;;;0.00;0.00;;;17.70;99.90;;;;;;4938611;28;20449;-72
2022/07/26 03:13:12;;;;;;;0.00;0.00;;;17.70;99.90;;;;;;4938747;28;20725;-73
2022/07/26 03:15:40;;;;;;;0.00;0.00;;;17.80;99.90;;;;;;4938786;28;20461;-73
2022/07/26 03:18:07;;;;;;;0.00;0.00;;;17.90;99.90;;;;;;4938753;28;20544;-72
2022/07/26 03:20:35;;;;;;;0.00;0.00;;;18.00;99.90;;;;;;4938492;28;20474;-73
2022/07/26 03:23:04;;;;;;;0.00;0.00;;;18.00;99.90;;;;;;4938370;28;20493;-74
2022/07/26 03:25:32;;;;;;;0.00;0.00;;;18.10;99.90;;;;;;4939299;29;20460;-78
2022/07/26 03:28:04;;;;;;;0.00;0.00;;;18.20;99.90;;;;;;4940971;28;20468;-72
2022/07/26 03:30:32;;;;;;;0.00;0.00;;;18.30;99.90;;;;;;4938027;28;20454;-71
2022/07/26 03:33:00;;;;;;;0.00;0.00;;;18.20;99.90;;;;;;4938430;28;20843;-71
2022/07/26 03:35:28;;;;;;;0.00;0.00;;;18.20;99.90;;;;;;4938432;29;20451;-72
2022/07/26 03:37:56;;;;;;;0.00;0.00;;;18.20;99.90;;;;;;4937986;29;20553;-72
2022/07/26 03:40:25;;;;;;;0.00;0.00;;;18.20;99.90;;;;;;4938348;28;20451;-71
2022/07/26 03:42:52;;;;;;;0.00;0.00;;;18.30;99.90;;;;;;4938215;28;20487;-72
2022/07/26 03:45:20;;;;;;;0.00;0.00;;;18.30;99.90;;;;;;4938308;28;20449;-72
2022/07/26 03:47:48;;;;;;;0.00;0.00;;;18.30;99.90;;;;;;4940581;28;20467;-81
2022/07/26 03:50:16;;;;;;;0.00;0.00;;;18.30;99.90;;;;;;4949102;28;20451;-81
2022/07/26 03:52:44;;;;;;;0.00;0.00;;;18.30;99.90;;;;;;4942370;28;20452;-80
2022/07/26 03:57:58;;;;;;;0.00;0.00;;;18.40;99.90;;;;;;4959978;28;20497;-81
2022/07/26 04:00:26;;;;;;;0.00;0.00;;;18.40;99.90;;;;;;4940663;28;20483;-80
2022/07/26 04:02:53;;;;;;;0.00;0.00;;;18.50;99.90;;;;;;4941241;28;20576;-78
2022/07/26 04:05:22;;;;;;;0.00;0.00;;;18.60;99.90;;;;;;4941723;28;20463;-80
2022/07/26 04:07:50;;;;;;;0.00;0.00;;;18.60;99.90;;;;;;4941487;28;20462;-78
2022/07/26 04:10:20;;;;;;;0.00;0.00;;;18.60;99.90;;;;;;4941964;28;20520;-81
2022/07/26 04:12:48;;;;;;;0.00;0.00;;;18.60;99.90;;;;;;4939236;29;20521;-80
2022/07/26 04:15:19;;;;;;;0.00;0.00;;;18.70;99.90;;;;;;4939848;28;20449;-79
2022/07/26 04:17:48;;;;;;;0.00;0.00;;;18.80;99.90;;;;;;4940190;28;20521;-79
2022/07/26 04:20:16;;;;;;;0.00;0.00;;;18.90;99.90;;;;;;4939817;28;20458;-79
2022/07/26 04:22:44;;;;;;;0.00;0.00;;;18.90;99.90;;;;;;4942212;28;20546;-80
2022/07/26 04:25:12;;;;;;;0.00;0.00;;;18.90;99.90;;;;;;4941335;28;21009;-80
2022/07/26 04:27:40;;;;;;;0.00;0.00;;;18.80;99.90;;;;;;4940349;28;20478;-79
2022/07/26 04:30:10;;;;;;;0.00;0.00;;;18.90;99.90;;;;;;4940349;29;20451;-80
2022/07/26 04:32:43;;;;;;;0.00;0.00;;;19.00;99.90;;;;;;4938681;28;20447;-79
2022/07/26 04:35:14;;;;;;;0.00;0.00;;;19.10;99.90;;;;;;4939382;28;21118;-79
2022/07/26 04:37:43;;;;;;;0.00;0.00;;;19.20;99.90;;;;;;4940839;28;20472;-81
2022/07/26 04:40:12;;;;;;;0.00;0.00;;;19.30;99.90;;;;;;4938934;28;20439;-78
2022/07/26 04:42:40;;;;;;;0.00;0.00;;;19.30;99.90;;;;;;4940123;28;20451;-77
2022/07/26 04:45:11;;;;;;;0.00;0.00;;;19.30;99.90;;;;;;4941275;28;20533;-76
2022/07/26 04:47:42;;;;;;;0.00;0.00;;;19.30;99.90;;;;;;4941514;28;20468;-75
2022/07/26 04:50:11;;;;;;;0.00;0.00;;;19.40;99.90;;;;;;4941456;28;20947;-81
2022/07/26 04:52:39;;;;;;;0.00;0.00;;;19.20;99.90;;;;;;4943988;29;21138;-82
2022/07/26 04:55:09;;;;;;;0.00;0.00;;;18.90;99.90;;;;;;4944615;28;20450;-81
2022/07/26 04:57:37;;;;;;;0.00;0.00;;;18.50;99.90;;;;;;4943532;29;20455;-82
2022/07/26 05:00:08;;;;;;;0.00;0.00;;;18.20;99.90;;;;;;4943266;29;20478;-81
2022/07/26 05:02:51;;;;;;;0.00;0.00;;;18.00;99.90;;;;;;4944413;28;21235;-80
2022/07/26 05:05:19;;;;;;;0.00;0.00;;;17.80;99.90;;;;;;4943892;28;20539;-77
2022/07/26 05:07:49;;;;;;;0.00;0.00;;;17.70;99.90;;;;;;4941050;28;20718;-77
2022/07/26 05:10:17;;;;;;;0.00;0.00;;;17.60;99.90;;;;;;4941141;29;20445;-78
2022/07/26 05:12:45;;;;;;;0.00;0.00;;;17.50;99.90;;;;;;4941617;28;20445;-78
2022/07/26 05:15:14;;;;;;;0.00;0.00;;;17.40;99.90;;;;;;4947691;28;21151;-78
2022/07/26 05:17:43;;;;;;;0.00;0.00;;;17.40;99.90;;;;;;4941207;29;20951;-84
2022/07/26 05:20:15;;;;;;;0.00;0.00;;;17.30;99.90;;;;;;4940873;28;20964;-73
2022/07/26 05:22:44;;;;;;;0.00;0.00;;;17.30;99.90;;;;;;4940301;28;20441;-73
2022/07/26 05:25:11;;;;;;;0.00;0.00;;;17.30;99.90;;;;;;4940242;28;20834;-73
2022/07/26 05:27:40;;;;;;;0.00;0.00;;;17.30;99.90;;;;;;4939936;29;20989;-72
2022/07/26 05:30:10;;;;;;;0.00;0.00;;;17.20;99.90;;;;;;4939958;28;20484;-73
2022/07/26 05:32:38;;;;;;;0.00;0.00;;;17.20;99.90;;;;;;4940358;28;20498;-73
2022/07/26 05:35:07;;;;;;;0.00;0.00;;;17.30;99.90;;;;;;4940233;28;20444;-75
2022/07/26 05:37:37;;;;;;;0.00;0.00;;;17.30;99.90;;;;;;4940172;29;20504;-74
2022/07/26 05:40:09;;;;;;;0.00;0.00;;;17.40;99.90;;;;;;4940061;28;20811;-76
2022/07/26 05:42:36;;;;;;;0.00;0.00;;;17.40;99.90;;;;;;4938775;28;20457;-75
2022/07/26 05:45:05;;;;;;;0.00;0.00;;;17.40;99.90;;;;;;4936717;29;20492;-73
2022/07/26 05:47:33;;;;;;;0.00;0.00;;;17.50;99.90;;;;;;4938292;28;20489;-73
2022/07/26 05:50:01;;;;;;;0.00;0.00;;;17.50;99.90;;;;;;4938187;29;20457;-74
2022/07/26 05:52:29;;;;;;;0.00;0.00;;;17.50;99.90;;;;;;4940045;29;20533;-73
2022/07/26 05:54:58;;;;;;;0.00;0.00;;;17.60;99.90;;;;;;4939757;28;20441;-73
2022/07/26 05:57:26;;;;;;;0.00;0.00;;;17.60;99.90;;;;;;4940714;28;20473;-79
2022/07/26 05:59:54;;;;;;;0.00;0.00;;;17.70;99.90;;;;;;4938634;29;20452;-74
2022/07/26 06:02:21;;;;;;;0.00;0.00;;;17.70;99.90;;;;;;4941234;29;20446;-75
2022/07/26 06:04:49;;;;;;;0.00;0.00;;;17.70;99.90;;;;;;4941364;28;20582;-76
2022/07/26 06:07:17;;;;;;;0.00;0.00;;;17.70;99.90;;;;;;4941935;28;20549;-78
2022/07/26 06:09:45;;;;;;;0.00;0.00;;;17.70;99.90;;;;;;4940309;28;20465;-74
2022/07/26 06:12:14;;;;;;;0.00;0.00;;;17.80;99.90;;;;;;4938212;28;20485;-73
2022/07/26 06:14:42;;;;;;;0.00;0.00;;;17.80;99.90;;;;;;4939288;28;20520;-73
2022/07/26 06:17:14;;;;;;;0.00;0.00;;;17.70;99.90;;;;;;4939194;28;20475;-72
2022/07/26 06:19:42;;;;;;;0.00;0.00;;;17.80;99.90;;;;;;4947884;28;20447;-78
2022/07/26 06:22:14;;;;;;;0.00;0.00;;;17.90;99.90;;;;;;4946151;28;20445;-77
2022/07/26 06:24:42;;;;;;;0.00;0.00;;;18.00;99.90;;;;;;4940796;28;21045;-77
2022/07/26 06:27:10;;;;;;;0.00;0.00;;;18.10;99.90;;;;;;4940700;28;20549;-78
2022/07/26 06:29:40;;;;;;;0.00;0.00;;;18.20;99.90;;;;;;4938767;29;20515;-79
2022/07/26 06:32:08;;;;;;;0.00;0.00;;;18.10;99.90;;;;;;4939989;28;20489;-78
2022/07/26 06:34:35;;;;;;;0.00;0.00;;;18.10;99.90;;;;;;4939807;28;20536;-78
2022/07/26 06:37:03;;;;;;;0.00;0.00;;;18.20;99.90;;;;;;4940581;28;20505;-83
2022/07/26 06:39:31;;;;;;;0.00;0.00;;;18.20;99.90;;;;;;4940063;28;20531;-73
2022/07/26 06:41:59;;;;;;;0.00;0.00;;;18.40;99.90;;;;;;4937274;28;20460;-70
2022/07/26 06:44:27;;;;;;;0.00;0.00;;;18.60;99.90;;;;;;4938838;28;20491;-70
2022/07/26 06:46:56;;;;;;;0.00;0.00;;;18.60;99.90;;;;;;4938641;29;20443;-70
2022/07/26 06:49:24;;;;;;;0.00;0.00;;;18.60;99.90;;;;;;4938999;28;20445;-71
2022/07/26 06:51:52;;;;;;;0.00;0.00;;;18.60;99.90;;;;;;4938201;28;20450;-71
2022/07/26 06:54:19;;;;;;;0.00;0.00;;;18.60;99.90;;;;;;4938718;28;20481;-70
2022/07/26 06:56:47;;;;;;;0.00;0.00;;;18.60;99.90;;;;;;4937059;29;20459;-71
2022/07/26 06:59:15;;;;;;;0.00;0.00;;;18.50;99.90;;;;;;4938193;28;20450;-71
2022/07/26 07:01:43;;;;;;;0.00;0.00;;;18.60;99.90;;;;;;4938421;28;20442;-71
2022/07/26 07:04:28;;;;;;;0.00;0.00;;;18.50;99.90;;;;;;4938263;28;20868;-70
2022/07/26 07:07:01;;;;;;;0.00;0.00;;;18.40;99.90;;;;;;4937637;28;20460;-70
2022/07/26 07:09:32;;;;;;;0.00;0.00;;;18.30;99.90;;;;;;4938036;28;20447;-72
2022/07/26 07:12:01;;;;;;;0.00;0.00;;;18.30;99.90;;;;;;4938001;28;21030;-72
2022/07/26 07:14:36;;;;;;;0.00;0.00;;;18.20;99.90;;;;;;4938423;28;20497;-70
2022/07/26 07:17:05;;;;;;;0.00;0.00;;;18.10;99.90;;;;;;4936861;28;21052;-71
2022/07/26 07:19:42;;;;;;;0.00;0.00;;;18.10;99.90;;;;;;4938451;28;20449;-71
2022/07/26 07:22:10;;;;;;;0.00;0.00;;;18.00;99.90;;;;;;4937851;28;20529;-72
2022/07/26 07:24:39;;;;;;;0.00;0.00;;;17.90;99.90;;;;;;4937376;28;20482;-72
2022/07/26 07:27:08;;;;;;;0.00;0.00;;;17.80;99.90;;;;;;4938521;28;20571;-72
2022/07/26 07:29:37;;;;;;;0.00;0.00;;;17.70;99.90;;;;;;4938971;28;20504;-74
2022/07/26 07:32:08;;;;;;;0.00;0.00;;;17.80;99.90;;;;;;4939192;28;21090;-74
2022/07/26 07:34:46;;;;;;;0.00;0.00;;;18.00;99.90;;;;;;4939551;29;20461;-74
2022/07/26 07:37:14;;;;;;;0.00;0.00;;;18.10;99.90;;;;;;4938863;28;20469;-74
2022/07/26 07:39:42;;;;;;;0.00;0.00;;;18.20;99.90;;;;;;4938919;29;21135;-74
2022/07/26 07:42:15;;;;;;;0.00;0.00;;;18.40;99.90;;;;;;4938716;29;21043;-73
2022/07/26 07:44:43;;;;;;;0.00;0.00;;;18.50;99.90;;;;;;4937872;29;20485;-72
2022/07/26 07:47:11;;;;;;;0.00;0.00;;;18.40;99.90;;;;;;4937753;28;20481;-73
2022/07/26 07:49:39;;;;;;;0.00;0.00;;;18.10;99.90;;;;;;4937340;28;20478;-71
2022/07/26 07:52:08;;;;;;;0.00;0.00;;;17.80;99.90;;;;;;4937504;29;20449;-73
2022/07/26 07:54:36;;;;;;;0.00;0.00;;;17.60;99.90;;;;;;4938129;28;20549;-74
2022/07/26 07:57:04;;;;;;;0.00;0.00;;;17.50;99.90;;;;;;4937281;29;20995;-73
2022/07/26 07:59:34;;;;;;;0.00;0.00;;;17.40;99.90;;;;;;4938307;29;20536;-73
2022/07/26 08:02:06;;;;;;;0.00;0.00;;;17.40;99.90;;;;;;4938002;28;20533;-73
2022/07/26 08:04:34;;;;;;;0.00;0.00;;;17.40;99.90;;;;;;4937695;29;20559;-73
2022/07/26 08:07:02;;;;;;;0.00;0.00;;;17.50;99.90;;;;;;4937283;29;20480;-75
2022/07/26 08:09:31;;;;;;;0.00;0.00;;;17.50;99.90;;;;;;4938097;28;20445;-79
2022/07/26 08:12:00;;;;;;;0.00;0.00;;;17.40;99.90;;;;;;4937863;29;20453;-79
2022/07/26 08:14:28;;;;;;;0.00;0.00;;;17.40;99.90;;;;;;4938311;28;20448;-77
2022/07/26 08:16:56;;;;;;;0.00;0.00;;;17.40;99.90;;;;;;4937140;28;20521;-78
2022/07/26 08:19:25;;;;;;;0.00;0.00;;;17.50;99.90;;;;;;4941528;29;20469;-77
2022/07/26 08:22:10;;;;;;;0.00;0.00;;;17.60;99.90;;;;;;4941739;28;20457;-76
2022/07/26 08:24:43;;;;;;;0.00;0.00;;;17.60;99.90;;;;;;4944284;28;20483;-78
2022/07/26 08:27:11;;;;;;;0.00;0.00;;;17.70;99.90;;;;;;4943399;28;20458;-78
2022/07/26 08:29:39;;;;;;;0.00;0.00;;;17.90;99.90;;;;;;4942286;29;20549;-78
2022/07/26 08:32:07;;;;;;;0.00;0.00;;;18.10;99.90;;;;;;4942727;28;20442;-78
2022/07/26 08:34:35;;;;;;;0.00;0.00;;;18.30;99.90;;;;;;4942463;28;20940;-75
2022/07/26 08:37:03;;;;;;;0.00;0.00;;;18.40;99.90;;;;;;4942149;28;20466;-75
2022/07/26 08:39:46;;;;;;;0.00;0.00;;;18.40;99.90;;;;;;4941380;29;21148;-75
2022/07/26 08:42:15;;;;;;;0.00;0.00;;;18.40;99.90;;;;;;4939990;28;20493;-75
2022/07/26 08:44:44;;;;;;;0.00;0.00;;;18.20;99.90;;;;;;4940454;28;20554;-74
2022/07/26 08:47:17;;;;;;;0.00;0.00;;;18.10;99.90;;;;;;4940578;28;20553;-73
2022/07/26 08:50:08;;;;;;;0.00;0.00;;;18.00;99.90;;;;;;4940989;29;20532;-74
2022/07/26 08:52:39;;;;;;;0.00;0.00;;;17.80;99.90;;;;;;4941118;28;20476;-72
2022/07/26 08:55:09;;;;;;;0.00;0.00;;;17.70;99.90;;;;;;4940366;28;20530;-72
2022/07/26 08:57:37;;;;;;;0.00;0.00;;;17.70;99.90;;;;;;4940519;28;20556;-72
2022/07/26 09:00:16;;;;;;;0.00;0.00;;;17.90;99.90;;;;;;4940327;28;20513;-72
2022/07/26 09:02:45;;;;;;;0.00;0.00;;;18.20;99.90;;;;;;4940386;28;20544;-72
2022/07/26 09:05:14;;;;;;;0.00;0.00;;;18.40;99.90;;;;;;4940354;28;21161;-74
2022/07/26 09:07:44;;;;;;;0.00;0.00;;;18.70;99.90;;;;;;4939448;28;20476;-75
2022/07/26 09:10:14;;;;;;;0.00;0.00;;;18.80;99.90;;;;;;4940689;28;20466;-76
2022/07/26 09:12:43;;;;;;;0.00;0.00;;;18.90;99.90;;;;;;4940544;28;20453;-75
2022/07/26 09:15:19;;;;;;;0.00;0.00;;;18.90;99.90;;;;;;4940143;28;20959;-74
2022/07/26 09:17:49;;;;;;;0.00;0.00;;;18.80;99.90;;;;;;4940094;28;20566;-76
2022/07/26 09:20:21;;;;;;;0.00;0.00;;;18.70;99.90;;;;;;4939845;28;20460;-75
2022/07/26 09:22:58;;;;;;;0.00;0.00;;;18.50;99.90;;;;;;4940522;28;20458;-76
2022/07/26 09:25:29;;;;;;;0.00;0.00;;;18.30;99.90;;;;;;4987734;28;20512;-76
2022/07/26 09:27:59;;;;;;;0.00;0.00;;;18.10;99.90;;;;;;4921042;28;20477;-75
2022/07/26 09:30:28;;;;;;;0.00;0.00;;;18.00;99.90;;;;;;4920446;28;20451;-75
2022/07/26 09:33:02;;;;;;;0.00;0.00;;;17.90;99.90;;;;;;4921155;29;20470;-76
2022/07/26 09:35:32;;;;;;;0.00;0.00;;;17.90;99.90;;;;;;4920972;29;20441;-75
2022/07/26 09:38:18;;;;;;;0.00;0.00;;;18.00;99.90;;;;;;4921187;29;20472;-77
2022/07/26 09:40:47;;;;;;;0.00;0.00;;;18.20;99.90;;;;;;4938305;29;20445;-77
2022/07/26 09:43:18;;;;;;;0.00;0.00;;;18.50;99.90;;;;;;4940765;28;20455;-78
2022/07/26 09:46:04;;;;;;;0.00;0.00;;;18.80;99.90;;;;;;4941053;28;21210;-77
2022/07/26 09:48:36;;;;;;;0.00;0.00;;;19.10;99.90;;;;;;4938730;28;20487;-77
2022/07/26 09:51:38;;;;;;;0.00;0.00;;;19.30;99.90;;;;;;4940057;29;20448;-77
2022/07/26 09:54:09;;;;;;;0.00;0.00;;;19.40;99.90;;;;;;4938746;28;20602;-74
2022/07/26 09:56:45;;;;;;;0.00;0.00;;;19.60;99.90;;;;;;4939636;28;20452;-75
2022/07/26 09:59:14;;;;;;;0.00;0.00;;;19.60;99.90;;;;;;4939227;29;20454;-74
2022/07/26 10:01:43;;;;;;;0.00;0.00;;;19.70;99.90;;;;;;4939384;29;20532;-74
2022/07/26 10:04:11;;;;;;;0.00;0.00;;;19.90;99.90;;;;;;4939919;28;20476;-75
2022/07/26 10:06:41;;;;;;;0.00;0.00;;;20.10;99.90;;;;;;4939386;28;21272;-74
2022/07/26 10:09:10;;;;;;;0.00;0.00;;;20.30;99.90;;;;;;4939524;28;20452;-74
2022/07/26 10:11:44;;;;;;;0.00;0.00;;;20.40;99.90;;;;;;4939574;28;20453;-74
2022/07/26 10:14:35;;;;;;;0.00;0.00;;;20.50;99.90;;;;;;4938839;28;20550;-74
2022/07/26 10:17:45;;;;;;;0.00;0.00;;;20.60;99.90;;;;;;4939070;28;21150;-71
2022/07/26 10:20:42;;;;;;;0.00;0.00;;;20.70;99.90;;;;;;4937678;29;20519;-74
2022/07/26 10:23:35;;;;;;;0.00;0.00;;;20.80;99.90;;;;;;4939674;28;20522;-74
2022/07/26 10:26:05;;;;;;;0.00;0.00;;;20.80;99.90;;;;;;4939969;29;20489;-74
2022/07/26 10:28:36;;;;;;;0.00;0.00;;;20.60;99.90;;;;;;4938030;28;21081;-74
2022/07/26 10:31:24;;;;;;;0.00;0.00;;;20.40;99.90;;;;;;4938700;28;20499;-76
2022/07/26 10:33:53;;;;;;;0.00;0.00;;;20.10;99.90;;;;;;4939426;28;20482;-76
2022/07/26 10:36:23;;;;;;;0.00;0.00;;;19.90;99.90;;;;;;4939067;29;20987;-77
2022/07/26 10:39:03;;;;;;;0.00;0.00;;;20.00;99.90;;;;;;4940151;29;20464;-77
2022/07/26 10:41:32;;;;;;;0.00;0.00;;;20.00;99.90;;;;;;4939012;28;21148;-77
2022/07/26 10:44:33;;;;;;;0.00;0.00;;;20.20;99.90;;;;;;4938282;28;20449;-76
2022/07/26 10:47:17;;;;;;;0.00;0.00;;;20.50;99.90;;;;;;4973181;28;20486;-76
2022/07/26 10:49:56;;;;;;;0.00;0.00;;;20.70;99.90;;;;;;4973389;28;20514;-76
2022/07/26 10:52:26;;;;;;;0.00;0.00;;;20.70;99.90;;;;;;4970847;28;20514;-77
2022/07/26 10:55:17;;;;;;;0.00;0.00;;;21.00;99.90;;;;;;4960884;28;20440;-81
2022/07/26 10:57:48;;;;;;;0.00;0.00;;;21.10;99.90;;;;;;4959876;28;20549;-77
2022/07/26 11:00:20;;;;;;;0.00;0.00;;;21.10;99.90;;;;;;4970355;28;20510;-77
2022/07/26 11:02:53;;;;;;;0.00;0.00;;;21.20;99.90;;;;;;4978853;28;20970;-77
2022/07/26 11:05:24;;;;;;;0.00;0.00;;;21.40;99.90;;;;;;4979295;28;20458;-78
2022/07/26 11:07:55;;;;;;;0.00;0.00;;;21.40;99.90;;;;;;4978420;28;20521;-79
2022/07/26 11:10:27;;;;;;;0.00;0.00;;;21.30;99.90;;;;;;4981953;28;20468;-78
2022/07/26 11:12:59;;;;;;;0.00;0.00;;;21.30;99.90;;;;;;4978001;28;20450;-77
2022/07/26 11:15:29;;;;;;;0.00;0.00;;;21.20;99.90;;;;;;4977948;28;20521;-79
2022/07/26 11:18:29;;;;;;;0.00;0.00;;;21.20;99.90;;;;;;4959870;28;20473;-78
2022/07/26 11:21:07;;;;;;;0.00;0.00;;;21.10;99.90;;;;;;4939599;28;20449;-75
2022/07/26 11:23:36;;;;;;;0.00;0.00;;;21.00;99.90;;;;;;4939008;28;20462;-77
2022/07/26 11:26:10;;;;;;;0.00;0.00;;;20.90;99.90;;;;;;4938414;28;20987;-77
2022/07/26 11:28:46;;;;;;;0.00;0.00;;;20.80;99.90;;;;;;4938617;29;20561;-78
2022/07/26 11:31:17;;;;;;;0.00;0.00;;;20.80;99.90;;;;;;4937486;28;20453;-76
2022/07/26 11:33:49;;;;;;;0.00;0.00;;;20.60;99.90;;;;;;4938410;29;20457;-76
2022/07/26 11:36:19;;;;;;;0.00;0.00;;;20.40;99.90;;;;;;4946211;28;20433;-78
2022/07/26 11:38:49;;;;;;;0.00;0.00;;;20.30;99.90;;;;;;4960025;28;21086;-78
2022/07/26 11:41:20;;;;;;;0.00;0.00;;;20.30;99.90;;;;;;4937348;28;20455;-78
2022/07/26 11:44:02;;;;;;;0.00;0.00;;;20.40;99.90;;;;;;4937802;28;20581;-76
2022/07/26 11:46:37;;;;;;;0.00;0.00;;;20.60;99.90;;;;;;4937493;28;20993;-75
2022/07/26 11:49:14;;;;;;;0.00;0.00;;;20.70;99.90;;;;;;4937840;28;20615;-77
2022/07/26 11:51:50;;;;;;;0.00;0.00;;;20.80;99.90;;;;;;4937592;28;20448;-77
2022/07/26 11:54:18;;;;;;;0.00;0.00;;;20.80;99.90;;;;;;4938527;29;20936;-77
2022/07/26 11:56:55;;;;;;;0.00;0.00;;;20.80;99.90;;;;;;4937920;29;20989;-77
2022/07/26 11:59:24;;;;;;;0.00;0.00;;;20.70;99.90;;;;;;4938728;29;20540;-78
2022/07/26 12:01:54;;;;;;;0.00;0.00;;;20.80;99.90;;;;;;4938157;29;21096;-77
2022/07/26 12:04:25;;;;;;;0.00;0.00;;;20.90;99.90;;;;;;4938456;28;21099;-78
2022/07/26 12:06:54;;;;;;;0.00;0.00;;;21.10;99.90;;;;;;4938281;28;20515;-75
2022/07/26 12:09:30;;;;;;;0.00;0.00;;;21.30;99.90;;;;;;4938563;28;20445;-77
2022/07/26 12:11:59;;;;;;;0.00;0.00;;;21.40;99.90;;;;;;4937981;29;20510;-77
2022/07/26 12:14:29;;;;;;;0.00;0.00;;;21.30;99.90;;;;;;4938282;28;20457;-78
2022/07/26 12:16:59;;;;;;;0.00;0.00;;;21.20;99.90;;;;;;4939916;28;20454;-77
2022/07/26 12:19:29;;;;;;;0.00;0.00;;;21.20;99.90;;;;;;4942179;28;20714;-77
2022/07/26 12:22:07;;;;;;;0.00;0.00;;;21.20;99.90;;;;;;4940946;29;21191;-75
2022/07/26 12:24:55;;;;;;;0.00;0.00;;;21.20;99.90;;;;;;4939672;28;20456;-75
2022/07/26 12:27:25;;;;;;;0.00;0.00;;;21.20;99.90;;;;;;4938987;28;20523;-77
2022/07/26 12:29:55;;;;;;;0.00;0.00;;;21.00;99.90;;;;;;4937588;28;20890;-76
2022/07/26 12:32:37;;;;;;;0.00;0.00;;;20.90;99.90;;;;;;4933941;28;21137;-77
2022/07/26 12:35:07;;;;;;;0.00;0.00;;;20.80;99.90;;;;;;4938371;28;20994;-78
2022/07/26 12:37:38;;;;;;;0.00;0.00;;;20.80;99.90;;;;;;4937961;29;20469;-79
2022/07/26 12:40:14;;;;;;;0.00;0.00;;;20.70;99.90;;;;;;4937141;28;20441;-78
2022/07/26 12:42:44;;;;;;;0.00;0.00;;;20.70;99.90;;;;;;4937643;28;20478;-78
2022/07/26 12:45:13;;;;;;;0.00;0.00;;;20.70;99.90;;;;;;4935975;29;21047;-76
2022/07/26 12:47:44;;;;;;;0.00;0.00;;;20.80;99.90;;;;;;4935651;28;20481;-76
2022/07/26 12:50:13;;;;;;;0.00;0.00;;;21.00;99.90;;;;;;4937249;29;20452;-76
2022/07/26 12:52:42;;;;;;;0.00;0.00;;;21.20;99.90;;;;;;4937741;28;20564;-77
2022/07/26 12:55:13;;;;;;;0.00;0.00;;;21.20;99.90;;;;;;4942010;28;20536;-76
2022/07/26 12:57:41;;;;;;;0.00;0.00;;;21.20;99.90;;;;;;4949965;28;20480;-69
2022/07/26 13:00:17;;;;;;;0.00;0.00;;;21.10;99.90;;;;;;4938878;28;20457;-70
2022/07/26 13:02:46;;;;;;;0.00;0.00;;;21.00;99.90;;;;;;4935376;28;20518;-70
2022/07/26 13:05:15;;;;;;;0.00;0.00;;;20.90;99.90;;;;;;4938213;28;20661;-71
2022/07/26 13:07:43;;;;;;;0.00;0.00;;;20.90;99.90;;;;;;4938728;28;20576;-70
2022/07/26 13:10:11;;;;;;;0.00;0.00;;;21.00;99.90;;;;;;4959723;28;20539;-70
2022/07/26 13:12:59;;;;;;;0.00;0.00;;;21.00;99.90;;;;;;4986975;28;20437;-70
2022/07/26 13:15:28;;;;;;;0.00;0.00;;;21.00;99.90;;;;;;4984509;28;20546;-71